createdAt,value
2018-05-12T00:00:40.331Z,99.99
2018-05-12T00:01:40.349Z,99.99
2018-05-12T00:02:40.395Z,99.99
2018-05-12T00:03:40.446Z,99.99
2018-05-12T00:04:40.492Z,99.99
2018-05-12T00:05:40.565Z,99.99
2018-05-12T00:06:40.590Z,99.99
2018-05-12T00:07:40.639Z,99.99
2018-05-12T00:08:40.685Z,99.99
2018-05-12T00:09:40.736Z,99.99
2018-05-12T00:10:40.813Z,99.99
2018-05-12T00:11:40.834Z,99.99
2018-05-12T00:12:40.883Z,99.99
2018-05-12T00:13:40.936Z,99.99
2018-05-12T00:14:40.983Z,99.99
2018-05-12T00:15:41.067Z,99.99
2018-05-12T00:16:41.081Z,99.99
2018-05-12T00:17:41.127Z,99.99
2018-05-12T00:18:41.176Z,99.99
2018-05-12T00:19:41.225Z,99.99
2018-05-12T00:20:41.307Z,99.99
2018-05-12T00:21:41.323Z,99.99
2018-05-12T00:22:41.370Z,99.99
2018-05-12T00:23:41.423Z,99.99
2018-05-12T00:24:41.468Z,99.99
2018-05-12T00:25:41.549Z,99.99
2018-05-12T00:26:41.566Z,99.99
2018-05-12T00:27:41.615Z,99.99
2018-05-12T00:28:41.665Z,99.99
2018-05-12T00:29:41.713Z,99.99
2018-05-12T00:30:41.802Z,99.99
2018-05-12T00:31:41.811Z,99.99
2018-05-12T00:32:41.867Z,99.99
2018-05-12T00:33:41.913Z,99.99
2018-05-12T00:34:41.957Z,99.99
2018-05-12T00:35:42.041Z,99.99
2018-05-12T00:36:42.058Z,99.99
2018-05-12T00:37:42.104Z,99.99
2018-05-12T00:38:42.155Z,99.99
2018-05-12T00:39:42.205Z,99.99
2018-05-12T00:40:42.276Z,99.99
2018-05-12T00:41:42.305Z,99.99
2018-05-12T00:42:42.380Z,99.99
2018-05-12T00:43:42.397Z,99.99
2018-05-12T00:44:42.448Z,99.99
2018-05-12T00:45:42.496Z,99.99
2018-05-12T00:46:42.544Z,99.99
2018-05-12T00:47:42.617Z,99.99
2018-05-12T00:48:42.644Z,99.99
2018-05-12T00:49:42.718Z,99.99
2018-05-12T00:50:42.738Z,99.99
2018-05-12T00:51:42.786Z,99.99
2018-05-12T00:52:42.871Z,99.99
2018-05-12T00:53:42.892Z,99.99
2018-05-12T00:54:42.938Z,99.99
2018-05-12T00:55:42.982Z,99.99
2018-05-12T00:56:43.031Z,99.99
2018-05-12T00:57:43.102Z,99.99
2018-05-12T00:58:43.127Z,99.99
2018-05-12T00:59:43.177Z,99.99
2018-05-12T01:00:43.226Z,99.99
2018-05-12T01:01:43.312Z,99.99
2018-05-12T01:02:43.359Z,99.99
2018-05-12T01:03:43.372Z,99.99
2018-05-12T01:04:43.420Z,99.99
2018-05-12T01:05:43.470Z,99.99
2018-05-12T01:06:43.519Z,99.99
2018-05-12T01:07:43.589Z,99.99
2018-05-12T01:08:43.640Z,99.99
2018-05-12T01:09:43.669Z,99.99
2018-05-12T01:10:43.713Z,99.99
2018-05-12T01:11:43.758Z,99.99
2018-05-12T01:12:43.811Z,99.99
2018-05-12T01:13:43.880Z,99.99
2018-05-12T01:14:43.905Z,99.99
2018-05-12T01:15:43.952Z,99.99
2018-05-12T01:16:44.003Z,99.99
2018-05-12T01:17:44.051Z,99.99
2018-05-12T01:18:44.140Z,99.99
2018-05-12T01:19:44.147Z,99.99
2018-05-12T01:20:44.194Z,99.99
2018-05-12T01:21:44.249Z,99.99
2018-05-12T01:22:44.292Z,99.99
2018-05-12T01:23:44.374Z,99.99
2018-05-12T01:24:44.389Z,99.99
2018-05-12T01:25:44.440Z,99.99
2018-05-12T01:26:44.485Z,99.99
2018-05-12T01:27:44.536Z,99.99
2018-05-12T01:28:44.610Z,99.99
2018-05-12T01:29:44.657Z,99.99
2018-05-12T01:30:44.680Z,99.99
2018-05-12T01:31:44.727Z,99.99
2018-05-12T01:32:44.776Z,99.99
2018-05-12T01:33:44.868Z,99.99
2018-05-12T01:34:44.873Z,99.99
2018-05-12T01:35:44.920Z,99.99
2018-05-12T01:36:44.970Z,99.99
2018-05-12T01:37:45.019Z,99.99
2018-05-12T01:38:45.104Z,99.99
2018-05-12T01:39:45.115Z,99.99
2018-05-12T01:40:45.161Z,99.99
2018-05-12T01:41:45.211Z,99.99
2018-05-12T01:42:45.258Z,99.99
2018-05-12T01:43:45.336Z,99.99
2018-05-12T01:44:45.353Z,99.99
2018-05-12T01:45:45.403Z,99.99
2018-05-12T01:46:45.449Z,99.99
2018-05-12T01:47:45.499Z,99.99
2018-05-12T01:48:45.586Z,99.99
2018-05-12T01:49:45.596Z,99.99
2018-05-12T01:50:45.643Z,99.99
2018-05-12T01:51:45.690Z,99.99
2018-05-12T01:52:45.738Z,99.99
2018-05-12T01:53:45.817Z,99.99
2018-05-12T01:54:45.834Z,99.99
2018-05-12T01:55:45.889Z,99.99
2018-05-12T01:56:45.931Z,99.99
2018-05-12T01:57:45.979Z,99.99
2018-05-12T01:58:46.051Z,99.99
2018-05-12T01:59:46.082Z,99.99
2018-05-12T02:00:46.152Z,99.99
2018-05-12T02:01:46.174Z,99.99
2018-05-12T02:02:46.219Z,99.99
2018-05-12T02:03:46.269Z,99.99
2018-05-12T02:04:46.321Z,99.99
2018-05-12T02:05:46.389Z,99.99
2018-05-12T02:06:46.415Z,99.99
2018-05-12T02:07:46.459Z,99.99
2018-05-12T02:08:46.510Z,99.99
2018-05-12T02:09:46.561Z,99.99
2018-05-12T02:10:46.630Z,99.99
2018-05-12T02:11:46.677Z,99.99
2018-05-12T02:12:46.704Z,99.99
2018-05-12T02:13:46.748Z,99.99
2018-05-12T02:14:46.802Z,99.99
2018-05-12T02:15:46.849Z,99.99
2018-05-12T02:16:46.923Z,99.99
2018-05-12T02:17:46.943Z,99.99
2018-05-12T02:18:46.987Z,99.99
2018-05-12T02:19:47.041Z,99.99
2018-05-12T02:20:47.086Z,99.99
2018-05-12T02:21:47.172Z,99.99
2018-05-12T02:22:47.183Z,99.99
2018-05-12T02:23:47.231Z,99.99
2018-05-12T02:24:47.281Z,99.99
2018-05-12T02:25:47.326Z,99.99
2018-05-12T02:26:47.408Z,99.99
2018-05-12T02:27:47.426Z,99.99
2018-05-12T02:28:47.471Z,99.99
2018-05-12T02:29:47.527Z,99.99
2018-05-12T02:30:47.567Z,99.99
2018-05-12T02:31:47.643Z,99.99
2018-05-12T02:32:47.663Z,99.99
2018-05-12T02:33:47.734Z,99.99
2018-05-12T02:34:47.768Z,99.99
2018-05-12T02:35:47.805Z,99.99
2018-05-12T02:36:47.855Z,99.99
2018-05-12T02:37:47.927Z,99.99
2018-05-12T02:38:47.984Z,99.99
2018-05-12T02:39:48.003Z,99.99
2018-05-12T02:40:48.052Z,99.99
2018-05-12T02:41:48.093Z,99.99
2018-05-12T02:42:48.144Z,99.99
2018-05-12T02:43:48.214Z,99.99
2018-05-12T02:44:48.243Z,99.99
2018-05-12T02:45:48.288Z,99.99
2018-05-12T02:46:48.331Z,99.99
2018-05-12T02:47:48.380Z,99.99
2018-05-12T02:48:48.463Z,99.99
2018-05-12T02:49:48.479Z,99.99
2018-05-12T02:50:48.531Z,99.99
2018-05-12T02:51:48.571Z,99.99
2018-05-12T02:52:48.623Z,99.99
2018-05-12T02:53:48.693Z,99.99
2018-05-12T02:54:48.738Z,99.99
2018-05-12T02:55:48.763Z,99.99
2018-05-12T02:56:48.813Z,99.99
2018-05-12T02:57:48.867Z,99.99
2018-05-12T02:58:48.906Z,99.99
2018-05-12T02:59:48.983Z,99.99
2018-05-12T03:00:49.003Z,99.99
2018-05-12T03:01:49.053Z,99.99
2018-05-12T03:02:49.101Z,99.99
2018-05-12T03:03:49.147Z,99.99
2018-05-12T03:04:49.228Z,99.99
2018-05-12T03:05:49.245Z,99.99
2018-05-12T03:06:49.295Z,99.99
2018-05-12T03:07:49.337Z,99.99
2018-05-12T03:08:49.384Z,99.99
2018-05-12T03:09:49.457Z,99.99
2018-05-12T03:10:49.503Z,99.99
2018-05-12T03:11:49.528Z,99.99
2018-05-12T03:12:49.578Z,99.99
2018-05-12T03:13:49.625Z,99.99
2018-05-12T03:14:49.680Z,99.99
2018-05-12T03:15:49.753Z,99.99
2018-05-12T03:16:49.767Z,99.99
2018-05-12T03:17:49.818Z,99.99
2018-05-12T03:18:49.864Z,99.99
2018-05-12T03:19:49.910Z,99.99
2018-05-12T03:20:49.987Z,99.99
2018-05-12T03:21:50.005Z,99.99
2018-05-12T03:22:50.052Z,99.99
2018-05-12T03:23:50.098Z,99.99
2018-05-12T03:24:50.149Z,99.99
2018-05-12T03:25:50.220Z,99.99
2018-05-12T03:26:50.269Z,99.99
2018-05-12T03:27:50.294Z,99.99
2018-05-12T03:28:50.340Z,99.99
2018-05-12T03:29:50.391Z,99.99
2018-05-12T03:30:50.432Z,99.99
2018-05-12T03:31:50.503Z,99.99
2018-05-12T03:32:50.528Z,99.99
2018-05-12T03:33:50.575Z,99.99
2018-05-12T03:34:50.624Z,99.99
2018-05-12T03:35:50.671Z,99.99
2018-05-12T03:36:50.745Z,99.99
2018-05-12T03:37:50.770Z,99.99
2018-05-12T03:38:50.811Z,99.99
2018-05-12T03:39:50.861Z,99.99
2018-05-12T03:40:50.910Z,99.99
2018-05-12T03:41:50.989Z,99.99
2018-05-12T03:42:51.005Z,99.99
2018-05-12T03:43:51.052Z,99.99
2018-05-12T03:44:51.102Z,99.99
2018-05-12T03:45:51.146Z,99.99
2018-05-12T03:46:51.232Z,99.99
2018-05-12T03:47:51.241Z,99.99
2018-05-12T03:48:51.290Z,99.99
2018-05-12T03:49:51.339Z,99.99
2018-05-12T03:50:51.383Z,99.99
2018-05-12T03:51:51.455Z,99.99
2018-05-12T03:52:51.502Z,99.99
2018-05-12T03:53:51.533Z,99.99
2018-05-12T03:54:51.574Z,99.99
2018-05-12T03:55:51.622Z,99.99
2018-05-12T03:56:51.671Z,99.99
2018-05-12T03:57:51.757Z,99.99
2018-05-12T03:58:51.765Z,99.99
2018-05-12T03:59:51.825Z,99.99
2018-05-12T04:00:51.862Z,99.99
2018-05-12T04:01:51.909Z,99.99
2018-05-12T04:02:51.979Z,99.99
2018-05-12T04:03:52.002Z,99.99
2018-05-12T04:04:52.050Z,99.99
2018-05-12T04:05:52.098Z,99.99
2018-05-12T04:06:52.147Z,99.99
2018-05-12T04:07:52.219Z,99.99
2018-05-12T04:08:52.238Z,99.99
2018-05-12T04:09:52.286Z,99.99
2018-05-12T04:10:52.338Z,99.99
2018-05-12T04:11:52.381Z,99.99
2018-05-12T04:12:52.464Z,99.99
2018-05-12T04:13:52.479Z,99.99
2018-05-12T04:14:52.527Z,99.99
2018-05-12T04:15:52.572Z,99.99
2018-05-12T04:16:52.619Z,99.99
2018-05-12T04:17:52.703Z,99.99
2018-05-12T04:18:52.713Z,99.99
2018-05-12T04:19:52.768Z,99.99
2018-05-12T04:20:52.813Z,99.99
2018-05-12T04:21:52.859Z,99.99
2018-05-12T04:22:52.932Z,99.99
2018-05-12T04:23:52.974Z,99.99
2018-05-12T04:24:53.001Z,99.99
2018-05-12T04:25:53.046Z,99.99
2018-05-12T04:26:53.096Z,99.99
2018-05-12T04:27:53.146Z,99.99
2018-05-12T04:28:53.212Z,99.99
2018-05-12T04:29:53.262Z,99.99
2018-05-12T04:30:53.285Z,99.99
2018-05-12T04:31:53.334Z,99.99
2018-05-12T04:32:53.380Z,99.99
2018-05-12T04:33:53.452Z,99.99
2018-05-12T04:34:53.501Z,99.99
2018-05-12T04:35:53.522Z,99.99
2018-05-12T04:36:53.571Z,99.99
2018-05-12T04:37:53.617Z,99.99
2018-05-12T04:38:53.697Z,99.99
2018-05-12T04:39:53.714Z,99.99
2018-05-12T04:40:53.761Z,99.99
2018-05-12T04:41:53.809Z,99.99
2018-05-12T04:42:53.857Z,99.99
2018-05-12T04:43:53.931Z,99.99
2018-05-12T04:44:53.953Z,99.99
2018-05-12T04:45:54.025Z,99.99
2018-05-12T04:46:54.046Z,99.99
2018-05-12T04:47:54.093Z,99.99
2018-05-12T04:48:54.140Z,99.99
2018-05-12T04:49:54.188Z,99.99
2018-05-12T04:50:54.264Z,99.99
2018-05-12T04:51:54.284Z,99.99
2018-05-12T04:52:54.333Z,99.99
2018-05-12T04:53:54.380Z,99.99
2018-05-12T04:54:54.428Z,99.99
2018-05-12T04:55:54.498Z,99.99
2018-05-12T04:56:54.525Z,99.99
2018-05-12T04:57:54.572Z,99.99
2018-05-12T04:58:54.616Z,99.99
2018-05-12T04:59:54.664Z,99.99
2018-05-12T05:00:54.751Z,99.99
2018-05-12T05:01:54.760Z,99.99
2018-05-12T05:02:54.810Z,99.99
2018-05-12T05:03:54.861Z,99.99
2018-05-12T05:04:54.906Z,99.99
2018-05-12T05:05:54.974Z,99.99
2018-05-12T05:06:55.023Z,99.99
2018-05-12T05:07:55.052Z,99.99
2018-05-12T05:08:55.101Z,99.99
2018-05-12T05:09:55.142Z,99.99
2018-05-12T05:10:55.189Z,99.99
2018-05-12T05:11:55.275Z,99.99
2018-05-12T05:12:55.285Z,99.99
2018-05-12T05:13:55.333Z,99.99
2018-05-12T05:14:55.386Z,99.99
2018-05-12T05:15:55.428Z,99.99
2018-05-12T05:16:55.513Z,99.99
2018-05-12T05:17:55.532Z,99.99
2018-05-12T05:18:55.575Z,99.99
2018-05-12T05:19:55.621Z,99.99
2018-05-12T05:20:55.669Z,99.99
2018-05-12T05:21:55.744Z,99.99
2018-05-12T05:22:55.788Z,99.99
2018-05-12T05:23:55.813Z,99.99
2018-05-12T05:24:55.862Z,99.99
2018-05-12T05:25:55.910Z,99.99
2018-05-12T05:26:55.955Z,99.99
2018-05-12T05:27:56.038Z,99.99
2018-05-12T05:28:56.052Z,99.99
2018-05-12T05:29:56.099Z,99.99
2018-05-12T05:30:56.150Z,99.99
2018-05-12T05:31:56.223Z,99.99
2018-05-12T05:32:56.426Z,99.99
2018-05-12T05:33:56.293Z,99.99
2018-05-12T05:34:56.342Z,99.99
2018-05-12T05:35:56.391Z,99.99
2018-05-12T05:36:56.437Z,99.99
2018-05-12T05:37:56.508Z,99.99
2018-05-12T05:38:56.558Z,99.99
2018-05-12T05:39:56.584Z,99.99
2018-05-12T05:40:56.630Z,99.99
2018-05-12T05:41:56.679Z,99.99
2018-05-12T05:42:56.724Z,99.99
2018-05-12T05:43:56.801Z,99.99
2018-05-12T05:44:56.825Z,99.99
2018-05-12T05:45:56.876Z,99.99
2018-05-12T05:46:56.922Z,99.99
2018-05-12T05:47:56.972Z,99.99
2018-05-12T05:48:57.052Z,99.99
2018-05-12T05:49:57.065Z,99.99
2018-05-12T05:50:57.113Z,99.99
2018-05-12T05:51:57.162Z,99.99
2018-05-12T05:52:57.209Z,99.99
2018-05-12T05:53:57.287Z,99.99
2018-05-12T05:54:57.344Z,99.99
2018-05-12T05:55:57.359Z,99.99
2018-05-12T05:56:57.402Z,99.99
2018-05-12T05:57:57.453Z,99.99
2018-05-12T05:58:57.500Z,99.99
2018-05-12T05:59:57.572Z,99.99
2018-05-12T06:00:57.624Z,99.99
2018-05-12T06:01:58.453Z,99.99
2018-05-12T06:02:57.695Z,99.99
2018-05-12T06:03:57.746Z,99.99
2018-05-12T06:04:57.825Z,99.99
2018-05-12T06:05:57.841Z,99.99
2018-05-12T06:06:57.931Z,99.99
2018-05-12T06:07:57.937Z,99.99
2018-05-12T06:08:57.986Z,99.99
2018-05-12T06:09:58.062Z,99.99
2018-05-12T06:10:58.117Z,99.99
2018-05-12T06:11:58.132Z,99.99
2018-05-12T06:12:58.181Z,99.99
2018-05-12T06:13:58.233Z,99.99
2018-05-12T06:14:58.277Z,99.99
2018-05-12T06:15:58.351Z,99.99
2018-05-12T06:16:58.375Z,99.99
2018-05-12T06:17:58.473Z,99.99
2018-05-12T06:18:58.476Z,99.99
2018-05-12T06:19:58.520Z,99.99
2018-05-12T06:20:58.596Z,99.99
2018-05-12T06:21:58.660Z,99.99
2018-05-12T06:22:58.667Z,99.99
2018-05-12T06:23:58.717Z,99.99
2018-05-12T06:24:58.775Z,99.99
2018-05-12T06:25:58.817Z,99.99
2018-05-12T06:26:58.899Z,99.99
2018-05-12T06:27:58.981Z,99.99
2018-05-12T06:28:58.961Z,99.99
2018-05-12T06:29:59.013Z,99.99
2018-05-12T06:30:59.061Z,99.99
2018-05-12T06:31:59.134Z,99.99
2018-05-12T06:32:59.163Z,99.99
2018-05-12T06:33:59.214Z,99.99
2018-05-12T06:34:59.261Z,99.99
2018-05-12T06:35:59.318Z,99.99
2018-05-12T06:36:59.379Z,99.99
2018-05-12T06:37:59.433Z,99.99
2018-05-12T06:38:59.456Z,99.99
2018-05-12T06:39:59.501Z,99.99
2018-05-12T06:40:59.553Z,99.99
2018-05-12T06:41:59.599Z,99.99
2018-05-12T06:43:00.260Z,99.99
2018-05-12T06:43:59.701Z,99.99
2018-05-12T06:44:59.759Z,98.77
2018-05-12T06:45:59.796Z,94.78
2018-05-12T06:46:59.847Z,91.85
2018-05-12T06:47:59.917Z,90.31
2018-05-12T06:48:59.946Z,89.98
2018-05-12T06:49:59.999Z,88.19
2018-05-12T06:51:00.123Z,85.31
2018-05-12T06:52:00.102Z,84.44
2018-05-12T06:53:00.170Z,84.34
2018-05-12T06:54:00.226Z,83.96
2018-05-12T06:55:00.250Z,84.73
2018-05-12T06:56:00.296Z,83.29
2018-05-12T06:57:00.347Z,84.01
2018-05-12T06:58:00.399Z,84.55
2018-05-12T06:59:00.473Z,85.51
2018-05-12T07:00:00.500Z,85.27
2018-05-12T07:01:00.551Z,84.59
2018-05-12T07:02:00.598Z,85.46
2018-05-12T07:03:00.654Z,85.46
2018-05-12T07:04:00.731Z,84.21
2018-05-12T07:05:00.753Z,82.81
2018-05-12T07:06:00.803Z,83.04
2018-05-12T07:07:00.850Z,80.77
2018-05-12T07:08:01.468Z,79.08
2018-05-12T07:09:00.977Z,79.17
2018-05-12T07:10:01.036Z,78.34
2018-05-12T07:11:01.058Z,76.71
2018-05-12T07:12:01.108Z,75.78
2018-05-12T07:13:01.164Z,75.36
2018-05-12T07:14:01.211Z,75.78
2018-05-12T07:15:01.290Z,75.49
2018-05-12T07:16:01.313Z,75.74
2018-05-12T07:17:01.361Z,74.91
2018-05-12T07:18:01.415Z,74.62
2018-05-12T07:19:01.967Z,74.14
2018-05-12T07:20:01.547Z,75.45
2018-05-12T07:21:01.570Z,74.76
2018-05-12T07:22:01.619Z,73.38
2018-05-12T07:23:01.669Z,70.58
2018-05-12T07:24:01.723Z,69.56
2018-05-12T07:25:01.806Z,68.62
2018-05-12T07:26:01.825Z,66.59
2018-05-12T07:27:01.922Z,65.47
2018-05-12T07:28:01.927Z,63.92
2018-05-12T07:29:01.990Z,66.33
2018-05-12T07:30:02.065Z,69.71
2018-05-12T07:31:02.084Z,71.98
2018-05-12T07:32:02.142Z,74.55
2018-05-12T07:33:02.191Z,75.61
2018-05-12T07:34:02.243Z,74.78
2018-05-12T07:35:02.319Z,73.53
2018-05-12T07:36:02.346Z,73.75
2018-05-12T07:37:02.396Z,73.57
2018-05-12T07:38:02.473Z,72.83
2018-05-12T07:39:02.523Z,72.25
2018-05-12T07:40:02.555Z,72.28
2018-05-12T07:41:02.629Z,71.70
2018-05-12T07:42:02.660Z,70.26
2018-05-12T07:43:02.732Z,70.03
2018-05-12T07:44:02.768Z,71.83
2018-05-12T07:45:02.820Z,71.38
2018-05-12T07:46:02.872Z,70.51
2018-05-12T07:47:02.920Z,71.48
2018-05-12T07:48:02.993Z,71.67
2018-05-12T07:49:03.024Z,71.51
2018-05-12T07:50:03.081Z,71.09
2018-05-12T07:51:03.131Z,72.41
2018-05-12T07:52:03.185Z,72.60
2018-05-12T07:53:03.256Z,72.69
2018-05-12T07:54:03.287Z,70.74
2018-05-12T07:55:03.338Z,70.00
2018-05-12T07:56:03.407Z,69.32
2018-05-12T07:57:03.531Z,69.29
2018-05-12T07:58:03.524Z,70.42
2018-05-12T07:59:03.547Z,71.28
2018-05-12T08:00:03.601Z,71.48
2018-05-12T08:01:03.652Z,72.00
2018-05-12T08:02:03.704Z,70.00
2018-05-12T08:03:03.794Z,69.07
2018-05-12T08:04:03.814Z,66.91
2018-05-12T08:05:03.867Z,65.66
2018-05-12T08:06:03.920Z,65.92
2018-05-12T08:07:03.974Z,66.24
2018-05-12T08:08:04.052Z,66.78
2018-05-12T08:09:04.078Z,67.56
2018-05-12T08:10:04.130Z,67.27
2018-05-12T08:11:04.188Z,67.08
2018-05-12T08:12:04.233Z,67.82
2018-05-12T08:13:04.321Z,68.94
2018-05-12T08:14:04.341Z,69.20
2018-05-12T08:15:04.402Z,70.42
2018-05-12T08:16:04.450Z,71.09
2018-05-12T08:17:04.502Z,71.58
2018-05-12T08:18:04.576Z,72.31
2018-05-12T08:19:04.649Z,72.50
2018-05-12T08:20:04.660Z,72.66
2018-05-12T08:21:04.714Z,71.98
2018-05-12T08:22:04.775Z,71.50
2018-05-12T08:23:04.816Z,71.70
2018-05-12T08:24:04.897Z,73.05
2018-05-12T08:25:04.925Z,72.18
2018-05-12T08:26:05.061Z,72.41
2018-05-12T08:27:05.029Z,72.50
2018-05-12T08:28:05.084Z,71.44
2018-05-12T08:29:05.791Z,70.80
2018-05-12T08:30:05.213Z,71.38
2018-05-12T08:31:05.244Z,71.34
2018-05-12T08:32:05.293Z,70.96
2018-05-12T08:33:05.347Z,69.71
2018-05-12T08:34:05.431Z,70.61
2018-05-12T08:35:05.454Z,66.56
2018-05-12T08:36:05.505Z,68.19
2018-05-12T08:37:07.265Z,67.10
2018-05-12T08:38:05.618Z,67.52
2018-05-12T08:39:05.691Z,68.26
2018-05-12T08:40:05.723Z,67.00
2018-05-12T08:41:05.767Z,68.16
2018-05-12T08:42:05.823Z,69.67
2018-05-12T08:43:05.875Z,70.35
2018-05-12T08:44:05.963Z,70.92
2018-05-12T08:45:05.979Z,71.15
2018-05-12T08:46:06.036Z,70.76
2018-05-12T08:47:06.084Z,69.42
2018-05-12T08:48:06.136Z,70.25
2018-05-12T08:49:06.222Z,71.12
2018-05-12T08:50:06.244Z,70.79
2018-05-12T08:51:06.295Z,71.56
2018-05-12T08:52:06.354Z,72.08
2018-05-12T08:53:06.405Z,70.76
2018-05-12T08:54:06.486Z,71.60
2018-05-12T08:55:06.508Z,71.44
2018-05-12T08:56:06.559Z,70.42
2018-05-12T08:57:06.615Z,68.77
2018-05-12T08:58:06.668Z,69.51
2018-05-12T08:59:06.741Z,71.15
2018-05-12T09:00:06.771Z,70.42
2018-05-12T09:01:06.830Z,70.32
2018-05-12T09:02:06.877Z,70.19
2018-05-12T09:03:06.956Z,70.61
2018-05-12T09:04:07.021Z,71.38
2018-05-12T09:05:07.046Z,70.45
2018-05-12T09:06:07.092Z,71.90
2018-05-12T09:07:07.158Z,70.04
2018-05-12T09:08:07.194Z,68.26
2018-05-12T09:09:07.281Z,69.49
2018-05-12T09:10:07.303Z,70.52
2018-05-12T09:11:07.358Z,70.46
2018-05-12T09:12:07.414Z,70.34
2018-05-12T09:13:07.466Z,70.08
2018-05-12T09:14:07.549Z,64.75
2018-05-12T09:15:07.575Z,63.62
2018-05-12T09:16:07.677Z,66.08
2018-05-12T09:17:07.679Z,63.78
2018-05-12T09:18:07.733Z,64.30
2018-05-12T09:19:07.809Z,62.16
2018-05-12T09:20:07.861Z,59.16
2018-05-12T09:21:07.894Z,63.04
2018-05-12T09:22:07.951Z,64.14
2018-05-12T09:23:08.002Z,62.59
2018-05-12T09:24:08.063Z,62.59
2018-05-12T09:25:08.186Z,60.48
2018-05-12T09:26:08.171Z,60.74
2018-05-12T09:27:08.222Z,57.44
2018-05-12T09:28:08.282Z,58.70
2018-05-12T09:29:08.336Z,60.74
2018-05-12T09:30:08.424Z,60.77
2018-05-12T09:31:08.454Z,59.70
2018-05-12T09:32:08.500Z,59.61
2018-05-12T09:33:08.558Z,57.34
2018-05-12T09:34:08.616Z,58.51
2018-05-12T09:35:08.711Z,64.07
2018-05-12T09:36:08.725Z,59.90
2018-05-12T09:37:08.793Z,57.67
2018-05-12T09:38:08.838Z,55.38
2018-05-12T09:39:08.892Z,58.52
2018-05-12T09:40:08.974Z,59.97
2018-05-12T09:41:09.028Z,66.40
2018-05-12T09:42:09.060Z,64.78
2018-05-12T09:43:09.118Z,60.71
2018-05-12T09:44:09.176Z,60.88
2018-05-12T09:45:09.233Z,57.39
2018-05-12T09:46:09.309Z,58.74
2018-05-12T09:47:09.378Z,60.01
2018-05-12T09:48:09.401Z,62.15
2018-05-12T09:49:09.460Z,64.72
2018-05-12T09:50:09.515Z,68.08
2018-05-12T09:51:09.570Z,64.53
2018-05-12T09:52:09.650Z,62.59
2018-05-12T09:53:09.681Z,62.47
2018-05-12T09:54:09.739Z,63.89
2018-05-12T09:55:09.796Z,64.66
2018-05-12T09:56:09.852Z,66.40
2018-05-12T09:57:09.930Z,71.40
2018-05-12T09:58:09.987Z,63.95
2018-05-12T09:59:10.016Z,63.01
2018-05-12T10:00:10.076Z,62.30
2018-05-12T10:01:10.127Z,62.18
2018-05-12T10:02:10.218Z,63.46
2018-05-12T10:03:10.238Z,62.66
2018-05-12T10:04:10.298Z,63.40
2018-05-12T10:05:10.349Z,64.05
2018-05-12T10:06:10.408Z,64.72
2018-05-12T10:07:10.487Z,65.88
2018-05-12T10:08:10.547Z,66.40
2018-05-12T10:09:10.574Z,65.88
2018-05-12T10:10:10.629Z,66.33
2018-05-12T10:11:10.686Z,65.75
2018-05-12T10:12:10.737Z,69.56
2018-05-12T10:13:10.834Z,67.30
2018-05-12T10:14:10.854Z,65.92
2018-05-12T10:15:10.906Z,65.05
2018-05-12T10:16:10.959Z,65.78
2018-05-12T10:17:11.017Z,66.88
2018-05-12T10:18:11.093Z,66.11
2018-05-12T10:19:11.125Z,66.08
2018-05-12T10:20:11.180Z,66.72
2018-05-12T10:21:11.238Z,68.52
2018-05-12T10:22:11.292Z,68.33
2018-05-12T10:23:11.382Z,70.06
2018-05-12T10:24:11.405Z,70.06
2018-05-12T10:25:11.457Z,71.06
2018-05-12T10:26:11.575Z,69.65
2018-05-12T10:27:11.565Z,68.36
2018-05-12T10:28:11.655Z,67.94
2018-05-12T10:29:11.675Z,70.68
2018-05-12T10:30:11.729Z,67.62
2018-05-12T10:31:11.783Z,66.36
2018-05-12T10:32:11.840Z,66.88
2018-05-12T10:33:11.920Z,66.78
2018-05-12T10:34:11.974Z,67.43
2018-05-12T10:35:12.006Z,68.26
2018-05-12T10:36:12.060Z,68.81
2018-05-12T10:37:12.113Z,69.97
2018-05-12T10:38:12.169Z,70.36
2018-05-12T10:39:12.246Z,69.90
2018-05-12T10:40:12.278Z,67.72
2018-05-12T10:41:12.333Z,67.79
2018-05-12T10:42:12.390Z,66.08
2018-05-12T10:43:12.443Z,62.95
2018-05-12T10:44:12.526Z,60.33
2018-05-12T10:45:12.572Z,62.40
2018-05-12T10:46:12.606Z,65.40
2018-05-12T10:47:12.662Z,67.98
2018-05-12T10:48:12.716Z,67.08
2018-05-12T10:49:12.803Z,70.42
2018-05-12T10:50:12.827Z,74.02
2018-05-12T10:51:12.880Z,75.57
2018-05-12T10:52:12.935Z,75.92
2018-05-12T10:53:12.993Z,77.44
2018-05-12T10:54:13.070Z,73.84
2018-05-12T10:55:13.124Z,70.78
2018-05-12T10:56:13.156Z,69.94
2018-05-12T10:57:13.211Z,71.97
2018-05-12T10:58:13.269Z,72.67
2018-05-12T10:59:13.320Z,75.47
2018-05-12T11:00:13.402Z,75.05
2018-05-12T11:01:13.431Z,75.62
2018-05-12T11:02:13.487Z,76.53
2018-05-12T11:03:13.543Z,75.47
2018-05-12T11:04:13.598Z,74.99
2018-05-12T11:05:13.683Z,74.99
2018-05-12T11:06:13.716Z,74.89
2018-05-12T11:07:13.765Z,75.31
2018-05-12T11:08:13.817Z,70.75
2018-05-12T11:09:13.871Z,68.98
2018-05-12T11:10:13.949Z,67.11
2018-05-12T11:11:14.003Z,65.50
2018-05-12T11:12:14.116Z,64.92
2018-05-12T11:13:14.088Z,66.30
2018-05-12T11:14:14.145Z,67.18
2018-05-12T11:15:14.203Z,68.12
2018-05-12T11:16:14.365Z,68.18
2018-05-12T11:17:14.321Z,69.75
2018-05-12T11:18:14.367Z,71.04
2018-05-12T11:19:14.423Z,74.83
2018-05-12T11:20:14.556Z,77.26
2018-05-12T11:21:14.558Z,79.00
2018-05-12T11:22:14.589Z,79.10
2018-05-12T11:23:14.650Z,78.91
2018-05-12T11:24:14.701Z,78.56
2018-05-12T11:25:14.756Z,77.63
2018-05-12T11:26:14.836Z,75.06
2018-05-12T11:27:14.867Z,74.48
2018-05-12T11:28:14.922Z,74.75
2018-05-12T11:29:14.980Z,69.04
2018-05-12T11:30:15.034Z,70.43
2018-05-12T11:31:15.114Z,69.75
2018-05-12T11:32:15.199Z,69.11
2018-05-12T11:33:15.201Z,68.27
2018-05-12T11:34:15.257Z,68.27
2018-05-12T11:35:15.309Z,68.27
2018-05-12T11:36:15.366Z,68.15
2018-05-12T11:37:15.446Z,67.46
2018-05-12T11:38:15.506Z,66.78
2018-05-12T11:39:15.533Z,66.85
2018-05-12T11:40:15.591Z,66.78
2018-05-12T11:41:15.648Z,64.18
2018-05-12T11:42:15.712Z,68.24
2018-05-12T11:43:15.795Z,67.94
2018-05-12T11:44:15.821Z,65.27
2018-05-12T11:45:15.871Z,64.47
2018-05-12T11:46:15.927Z,63.73
2018-05-12T11:47:15.983Z,61.40
2018-05-12T11:48:16.067Z,61.24
2018-05-12T11:49:16.128Z,62.85
2018-05-12T11:50:16.154Z,57.29
2018-05-12T11:51:16.211Z,55.28
2018-05-12T11:52:16.264Z,55.67
2018-05-12T11:53:16.322Z,57.54
2018-05-12T11:54:16.403Z,54.60
2018-05-12T11:55:16.436Z,55.26
2018-05-12T11:56:16.492Z,56.10
2018-05-12T11:57:16.549Z,55.52
2018-05-12T11:58:16.617Z,55.98
2018-05-12T11:59:16.685Z,55.76
2018-05-12T12:00:16.725Z,57.43
2018-05-12T12:01:16.776Z,58.59
2018-05-12T12:02:16.833Z,59.05
2018-05-12T12:03:16.893Z,60.44
2018-05-12T12:04:16.971Z,63.95
2018-05-12T12:05:17.015Z,69.65
2018-05-12T12:06:17.063Z,73.35
2018-05-12T12:07:17.124Z,72.48
2018-05-12T12:08:17.181Z,74.12
2018-05-12T12:09:17.265Z,74.21
2018-05-12T12:10:17.297Z,75.54
2018-05-12T12:11:17.351Z,72.78
2018-05-12T12:12:17.408Z,70.94
2018-05-12T12:13:17.461Z,72.58
2018-05-12T12:14:17.545Z,72.00
2018-05-12T12:15:17.574Z,72.78
2018-05-12T12:16:17.655Z,73.78
2018-05-12T12:17:17.688Z,73.88
2018-05-12T12:18:17.745Z,72.72
2018-05-12T12:19:17.808Z,72.24
2018-05-12T12:20:17.861Z,73.26
2018-05-12T12:21:17.940Z,73.84
2018-05-12T12:22:17.972Z,73.65
2018-05-12T12:23:18.029Z,75.33
2018-05-12T12:24:18.086Z,73.10
2018-05-12T12:25:18.143Z,71.20
2018-05-12T12:26:18.227Z,72.60
2018-05-12T12:27:18.261Z,62.27
2018-05-12T12:28:18.317Z,65.01
2018-05-12T12:29:18.371Z,63.07
2018-05-12T12:30:18.428Z,63.27
2018-05-12T12:31:18.519Z,59.42
2018-05-12T12:32:18.544Z,59.16
2018-05-12T12:33:18.659Z,58.00
2018-05-12T12:34:18.664Z,57.44
2018-05-12T12:35:18.714Z,57.26
2018-05-12T12:36:18.805Z,59.46
2018-05-12T12:37:18.835Z,61.30
2018-05-12T12:38:18.897Z,61.88
2018-05-12T12:39:18.952Z,62.59
2018-05-12T12:40:19.007Z,61.46
2018-05-12T12:41:19.098Z,60.88
2018-05-12T12:42:19.125Z,61.49
2018-05-12T12:43:19.184Z,59.88
2018-05-12T12:44:19.900Z,61.01
2018-05-12T12:45:19.304Z,60.75
2018-05-12T12:46:19.386Z,59.27
2018-05-12T12:47:19.457Z,59.79
2018-05-12T12:48:19.547Z,61.60
2018-05-12T12:49:19.551Z,63.27
2018-05-12T12:50:19.604Z,62.85
2018-05-12T12:51:19.651Z,62.40
2018-05-12T12:52:19.752Z,62.92
2018-05-12T12:53:19.770Z,63.92